sensor_id;sensor_type;location;lat;lon;timestamp;pressure;altitude;pressure_sealevel;temperature;humidity
38289;BME280;24092;53.370;-6.588;2022-09-24T00:01:11;101429.46;;;7.66;100.00
38289;BME280;24092;53.370;-6.588;2022-09-24T00:03:39;101429.63;;;7.28;100.00
38289;BME280;24092;53.370;-6.588;2022-09-24T00:06:07;101431.80;;;7.59;100.00
38289;BME280;24092;53.370;-6.588;2022-09-24T00:08:35;101429.88;;;7.14;100.00
38289;BME280;24092;53.370;-6.588;2022-09-24T00:11:05;101432.09;;;7.38;100.00
38289;BME280;24092;53.370;-6.588;2022-09-24T00:13:34;101432.97;;;7.41;100.00
38289;BME280;24092;53.370;-6.588;2022-09-24T00:16:03;101428.64;;;7.08;100.00
38289;BME280;24092;53.370;-6.588;2022-09-24T00:18:31;101425.82;;;7.32;100.00
38289;BME280;24092;53.370;-6.588;2022-09-24T00:20:59;101425.18;;;7.59;100.00
38289;BME280;24092;53.370;-6.588;2022-09-24T00:23:26;101428.02;;;7.47;100.00
38289;BME280;24092;53.370;-6.588;2022-09-24T00:25:53;101429.90;;;7.72;100.00
38289;BME280;24092;53.370;-6.588;2022-09-24T00:28:20;101429.96;;;7.23;100.00
38289;BME280;24092;53.370;-6.588;2022-09-24T00:30:47;101428.20;;;7.09;100.00
38289;BME280;24092;53.370;-6.588;2022-09-24T00:33:14;101428.94;;;7.46;100.00
38289;BME280;24092;53.370;-6.588;2022-09-24T00:35:41;101430.44;;;7.17;100.00
38289;BME280;24092;53.370;-6.588;2022-09-24T00:38:08;101425.42;;;7.13;100.00
38289;BME280;24092;53.370;-6.588;2022-09-24T00:40:37;101425.68;;;7.25;100.00
38289;BME280;24092;53.370;-6.588;2022-09-24T00:43:21;101425.45;;;6.72;100.00
38289;BME280;24092;53.370;-6.588;2022-09-24T00:45:49;101425.37;;;7.43;100.00
38289;BME280;24092;53.370;-6.588;2022-09-24T00:48:17;101421.69;;;7.22;100.00
38289;BME280;24092;53.370;-6.588;2022-09-24T00:50:45;101421.90;;;7.58;100.00
38289;BME280;24092;53.370;-6.588;2022-09-24T00:53:15;101424.61;;;7.59;100.00
38289;BME280;24092;53.370;-6.588;2022-09-24T00:55:46;101429.14;;;7.26;100.00
38289;BME280;24092;53.370;-6.588;2022-09-24T00:58:15;101429.45;;;7.23;100.00
38289;BME280;24092;53.370;-6.588;2022-09-24T01:00:51;101428.19;;;7.64;100.00
38289;BME280;24092;53.370;-6.588;2022-09-24T01:03:26;101427.15;;;7.13;100.00
38289;BME280;24092;53.370;-6.588;2022-09-24T01:05:55;101427.13;;;7.26;100.00
38289;BME280;24092;53.370;-6.588;2022-09-24T01:08:22;101423.89;;;7.88;100.00
38289;BME280;24092;53.370;-6.588;2022-09-24T01:11:03;101423.14;;;8.00;100.00
38289;BME280;24092;53.370;-6.588;2022-09-24T01:13:45;101418.92;;;7.81;100.00
38289;BME280;24092;53.370;-6.588;2022-09-24T01:16:23;101423.15;;;7.54;100.00
38289;BME280;24092;53.370;-6.588;2022-09-24T01:18:59;101422.59;;;7.21;100.00
38289;BME280;24092;53.370;-6.588;2022-09-24T01:21:37;101429.23;;;7.02;100.00
38289;BME280;24092;53.370;-6.588;2022-09-24T01:24:22;101427.83;;;7.51;100.00
38289;BME280;24092;53.370;-6.588;2022-09-24T01:27:01;101428.77;;;6.80;100.00
38289;BME280;24092;53.370;-6.588;2022-09-24T01:29:35;101430.02;;;6.37;100.00
38289;BME280;24092;53.370;-6.588;2022-09-24T01:32:07;101427.62;;;7.10;100.00
38289;BME280;24092;53.370;-6.588;2022-09-24T01:34:41;101425.66;;;6.39;100.00
38289;BME280;24092;53.370;-6.588;2022-09-24T01:37:12;101426.64;;;6.99;100.00
38289;BME280;24092;53.370;-6.588;2022-09-24T01:39:41;101424.06;;;7.63;100.00
38289;BME280;24092;53.370;-6.588;2022-09-24T01:42:11;101422.43;;;7.47;100.00
38289;BME280;24092;53.370;-6.588;2022-09-24T01:44:39;101419.70;;;6.99;100.00
38289;BME280;24092;53.370;-6.588;2022-09-24T01:47:09;101420.56;;;6.81;100.00
38289;BME280;24092;53.370;-6.588;2022-09-24T01:49:37;101421.83;;;6.75;100.00
38289;BME280;24092;53.370;-6.588;2022-09-24T01:52:08;101419.41;;;7.14;100.00
38289;BME280;24092;53.370;-6.588;2022-09-24T01:54:41;101418.38;;;7.17;100.00
38289;BME280;24092;53.370;-6.588;2022-09-24T01:57:12;101417.95;;;6.99;100.00
38289;BME280;24092;53.370;-6.588;2022-09-24T01:59:45;101414.97;;;6.85;100.00
38289;BME280;24092;53.370;-6.588;2022-09-24T02:02:18;101414.04;;;7.11;100.00
38289;BME280;24092;53.370;-6.588;2022-09-24T02:04:56;101417.02;;;7.38;100.00
38289;BME280;24092;53.370;-6.588;2022-09-24T02:07:29;101413.99;;;7.10;100.00
38289;BME280;24092;53.370;-6.588;2022-09-24T02:09:58;101413.44;;;7.03;100.00
38289;BME280;24092;53.370;-6.588;2022-09-24T02:12:27;101415.41;;;7.40;100.00
38289;BME280;24092;53.370;-6.588;2022-09-24T02:14:58;101415.48;;;7.61;100.00
38289;BME280;24092;53.370;-6.588;2022-09-24T02:17:31;101418.70;;;7.38;100.00
38289;BME280;24092;53.370;-6.588;2022-09-24T02:20:02;101418.36;;;7.84;100.00
38289;BME280;24092;53.370;-6.588;2022-09-24T02:22:31;101417.25;;;7.39;100.00
38289;BME280;24092;53.370;-6.588;2022-09-24T02:25:02;101413.31;;;7.22;100.00
38289;BME280;24092;53.370;-6.588;2022-09-24T02:27:30;101411.74;;;7.46;100.00
38289;BME280;24092;53.370;-6.588;2022-09-24T02:29:58;101414.42;;;6.83;100.00
38289;BME280;24092;53.370;-6.588;2022-09-24T02:32:27;101410.32;;;7.26;100.00
38289;BME280;24092;53.370;-6.588;2022-09-24T02:34:57;101412.08;;;7.42;100.00
38289;BME280;24092;53.370;-6.588;2022-09-24T02:37:26;101411.10;;;6.98;100.00
38289;BME280;24092;53.370;-6.588;2022-09-24T02:39:54;101413.46;;;7.07;100.00
38289;BME280;24092;53.370;-6.588;2022-09-24T02:42:21;101416.19;;;6.96;100.00
38289;BME280;24092;53.370;-6.588;2022-09-24T02:44:49;101416.46;;;6.99;100.00
38289;BME280;24092;53.370;-6.588;2022-09-24T02:47:16;101414.06;;;6.37;100.00
38289;BME280;24092;53.370;-6.588;2022-09-24T02:49:43;101416.03;;;6.38;100.00
38289;BME280;24092;53.370;-6.588;2022-09-24T02:52:10;101416.11;;;7.10;100.00
38289;BME280;24092;53.370;-6.588;2022-09-24T02:54:37;101409.12;;;7.23;100.00
38289;BME280;24092;53.370;-6.588;2022-09-24T02:57:04;101415.17;;;8.08;100.00
38289;BME280;24092;53.370;-6.588;2022-09-24T02:59:31;101411.95;;;6.74;100.00
38289;BME280;24092;53.370;-6.588;2022-09-24T03:01:58;101409.33;;;6.75;100.00
38289;BME280;24092;53.370;-6.588;2022-09-24T03:04:25;101405.95;;;7.87;100.00
38289;BME280;24092;53.370;-6.588;2022-09-24T03:06:52;101406.82;;;7.90;100.00
38289;BME280;24092;53.370;-6.588;2022-09-24T03:09:19;101404.59;;;7.75;100.00
38289;BME280;24092;53.370;-6.588;2022-09-24T03:11:46;101410.86;;;7.16;100.00
38289;BME280;24092;53.370;-6.588;2022-09-24T03:14:12;101415.53;;;6.46;100.00
38289;BME280;24092;53.370;-6.588;2022-09-24T03:16:40;101419.02;;;6.41;100.00
38289;BME280;24092;53.370;-6.588;2022-09-24T03:19:07;101417.87;;;7.00;100.00
38289;BME280;24092;53.370;-6.588;2022-09-24T03:21:33;101421.57;;;7.55;100.00
38289;BME280;24092;53.370;-6.588;2022-09-24T03:24:01;101424.99;;;7.04;100.00
38289;BME280;24092;53.370;-6.588;2022-09-24T03:26:28;101427.19;;;7.15;100.00
38289;BME280;24092;53.370;-6.588;2022-09-24T03:28:55;101428.53;;;7.12;100.00
38289;BME280;24092;53.370;-6.588;2022-09-24T03:31:22;101428.19;;;7.25;100.00
38289;BME280;24092;53.370;-6.588;2022-09-24T03:33:50;101426.95;;;7.20;100.00
38289;BME280;24092;53.370;-6.588;2022-09-24T03:36:18;101425.69;;;6.49;100.00
38289;BME280;24092;53.370;-6.588;2022-09-24T03:38:46;101421.64;;;7.32;100.00
38289;BME280;24092;53.370;-6.588;2022-09-24T03:41:15;101418.19;;;6.53;100.00
38289;BME280;24092;53.370;-6.588;2022-09-24T03:43:42;101417.08;;;6.54;100.00
38289;BME280;24092;53.370;-6.588;2022-09-24T03:46:11;101417.39;;;6.74;100.00
38289;BME280;24092;53.370;-6.588;2022-09-24T03:51:56;101421.26;;;5.39;100.00
38289;BME280;24092;53.370;-6.588;2022-09-24T03:54:23;101429.97;;;6.26;100.00
38289;BME280;24092;53.370;-6.588;2022-09-24T03:56:50;101430.35;;;6.43;100.00
38289;BME280;24092;53.370;-6.588;2022-09-24T03:59:17;101432.01;;;6.99;100.00
38289;BME280;24092;53.370;-6.588;2022-09-24T04:01:44;101430.58;;;7.11;100.00
38289;BME280;24092;53.370;-6.588;2022-09-24T04:04:11;101430.84;;;6.62;100.00
38289;BME280;24092;53.370;-6.588;2022-09-24T04:06:39;101427.70;;;6.05;100.00
38289;BME280;24092;53.370;-6.588;2022-09-24T04:09:06;101429.75;;;6.24;100.00
38289;BME280;24092;53.370;-6.588;2022-09-24T04:11:33;101430.81;;;6.29;100.00
38289;BME280;24092;53.370;-6.588;2022-09-24T04:14:01;101429.40;;;6.02;100.00
38289;BME280;24092;53.370;-6.588;2022-09-24T04:16:28;101433.40;;;6.02;100.00
38289;BME280;24092;53.370;-6.588;2022-09-24T04:18:55;101434.36;;;5.89;100.00
38289;BME280;24092;53.370;-6.588;2022-09-24T04:21:22;101435.25;;;5.43;100.00
38289;BME280;24092;53.370;-6.588;2022-09-24T04:23:49;101435.82;;;5.57;100.00
38289;BME280;24092;53.370;-6.588;2022-09-24T04:26:16;101434.67;;;5.96;100.00
38289;BME280;24092;53.370;-6.588;2022-09-24T04:28:43;101435.14;;;5.79;100.00
38289;BME280;24092;53.370;-6.588;2022-09-24T04:31:10;101434.10;;;5.88;100.00
38289;BME280;24092;53.370;-6.588;2022-09-24T04:33:37;101433.92;;;6.03;100.00
38289;BME280;24092;53.370;-6.588;2022-09-24T04:36:04;101436.27;;;5.80;100.00
38289;BME280;24092;53.370;-6.588;2022-09-24T04:38:31;101431.79;;;6.00;100.00
38289;BME280;24092;53.370;-6.588;2022-09-24T04:41:04;101434.55;;;6.41;100.00
38289;BME280;24092;53.370;-6.588;2022-09-24T04:43:31;101434.97;;;5.18;100.00
38289;BME280;24092;53.370;-6.588;2022-09-24T04:45:58;101434.77;;;6.05;100.00
38289;BME280;24092;53.370;-6.588;2022-09-24T04:48:25;101438.17;;;5.90;100.00
38289;BME280;24092;53.370;-6.588;2022-09-24T04:50:52;101443.84;;;5.15;100.00
38289;BME280;24092;53.370;-6.588;2022-09-24T04:53:19;101443.01;;;5.44;100.00
38289;BME280;24092;53.370;-6.588;2022-09-24T04:55:46;101444.86;;;5.77;100.00
38289;BME280;24092;53.370;-6.588;2022-09-24T04:58:13;101444.17;;;6.06;100.00
38289;BME280;24092;53.370;-6.588;2022-09-24T05:00:40;101449.22;;;5.19;100.00
38289;BME280;24092;53.370;-6.588;2022-09-24T05:03:07;101452.76;;;5.64;100.00
38289;BME280;24092;53.370;-6.588;2022-09-24T05:05:34;101452.73;;;4.84;100.00
38289;BME280;24092;53.370;-6.588;2022-09-24T05:08:02;101449.05;;;5.54;100.00
38289;BME280;24092;53.370;-6.588;2022-09-24T05:10:30;101446.83;;;5.76;100.00
38289;BME280;24092;53.370;-6.588;2022-09-24T05:12:57;101446.24;;;6.17;100.00
38289;BME280;24092;53.370;-6.588;2022-09-24T05:15:24;101452.16;;;5.03;100.00
38289;BME280;24092;53.370;-6.588;2022-09-24T05:17:51;101454.45;;;5.84;100.00
38289;BME280;24092;53.370;-6.588;2022-09-24T05:20:18;101458.61;;;6.37;100.00
38289;BME280;24092;53.370;-6.588;2022-09-24T05:22:46;101462.04;;;5.33;100.00
38289;BME280;24092;53.370;-6.588;2022-09-24T05:25:15;101463.93;;;5.19;100.00
38289;BME280;24092;53.370;-6.588;2022-09-24T05:27:43;101465.51;;;5.34;100.00
38289;BME280;24092;53.370;-6.588;2022-09-24T05:30:12;101466.05;;;5.90;100.00
38289;BME280;24092;53.370;-6.588;2022-09-24T05:32:41;101466.99;;;6.56;100.00
38289;BME280;24092;53.370;-6.588;2022-09-24T05:35:08;101469.06;;;5.79;100.00
38289;BME280;24092;53.370;-6.588;2022-09-24T05:37:36;101469.56;;;6.75;100.00
38289;BME280;24092;53.370;-6.588;2022-09-24T05:40:04;101470.33;;;5.30;100.00
38289;BME280;24092;53.370;-6.588;2022-09-24T05:42:31;101480.04;;;4.00;100.00
38289;BME280;24092;53.370;-6.588;2022-09-24T05:44:58;101480.05;;;5.02;100.00
38289;BME280;24092;53.370;-6.588;2022-09-24T05:47:25;101479.44;;;4.99;100.00
38289;BME280;24092;53.370;-6.588;2022-09-24T05:49:52;101485.11;;;3.73;100.00
38289;BME280;24092;53.370;-6.588;2022-09-24T05:52:19;101485.83;;;5.02;100.00
38289;BME280;24092;53.370;-6.588;2022-09-24T05:54:46;101489.38;;;4.44;100.00
38289;BME280;24092;53.370;-6.588;2022-09-24T05:57:13;101493.78;;;5.26;100.00
38289;BME280;24092;53.370;-6.588;2022-09-24T05:59:41;101494.53;;;5.08;100.00
38289;BME280;24092;53.370;-6.588;2022-09-24T06:02:09;101498.34;;;5.95;100.00
38289;BME280;24092;53.370;-6.588;2022-09-24T06:04:36;101498.95;;;5.45;100.00
38289;BME280;24092;53.370;-6.588;2022-09-24T06:07:03;101503.76;;;4.32;100.00
38289;BME280;24092;53.370;-6.588;2022-09-24T06:09:30;101507.95;;;5.38;100.00
38289;BME280;24092;53.370;-6.588;2022-09-24T06:11:57;101509.53;;;6.26;100.00
38289;BME280;24092;53.370;-6.588;2022-09-24T06:14:29;101516.30;;;6.36;100.00
38289;BME280;24092;53.370;-6.588;2022-09-24T06:16:57;101521.75;;;6.57;100.00
38289;BME280;24092;53.370;-6.588;2022-09-24T06:19:24;101521.93;;;5.61;100.00
38289;BME280;24092;53.370;-6.588;2022-09-24T06:21:51;101523.42;;;6.30;100.00
38289;BME280;24092;53.370;-6.588;2022-09-24T06:24:17;101516.56;;;5.93;100.00
38289;BME280;24092;53.370;-6.588;2022-09-24T06:26:45;101515.21;;;6.20;100.00
38289;BME280;24092;53.370;-6.588;2022-09-24T06:29:12;101519.20;;;4.64;100.00
38289;BME280;24092;53.370;-6.588;2022-09-24T06:31:39;101526.77;;;4.27;100.00
38289;BME280;24092;53.370;-6.588;2022-09-24T06:34:06;101527.56;;;4.84;100.00
38289;BME280;24092;53.370;-6.588;2022-09-24T06:36:33;101526.48;;;5.29;100.00
38289;BME280;24092;53.370;-6.588;2022-09-24T06:39:00;101523.53;;;5.81;100.00
38289;BME280;24092;53.370;-6.588;2022-09-24T06:41:27;101527.99;;;6.20;100.00
38289;BME280;24092;53.370;-6.588;2022-09-24T06:43:55;101530.05;;;5.93;100.00
38289;BME280;24092;53.370;-6.588;2022-09-24T06:46:22;101526.54;;;5.39;100.00
38289;BME280;24092;53.370;-6.588;2022-09-24T06:48:49;101530.76;;;6.06;100.00
38289;BME280;24092;53.370;-6.588;2022-09-24T06:51:16;101537.07;;;5.26;100.00
38289;BME280;24092;53.370;-6.588;2022-09-24T06:53:43;101538.66;;;5.38;100.00
38289;BME280;24092;53.370;-6.588;2022-09-24T06:56:10;101539.21;;;5.68;100.00
38289;BME280;24092;53.370;-6.588;2022-09-24T06:58:37;101543.00;;;6.17;100.00
38289;BME280;24092;53.370;-6.588;2022-09-24T07:01:04;101544.46;;;6.41;100.00
38289;BME280;24092;53.370;-6.588;2022-09-24T07:03:37;101542.83;;;6.36;100.00
38289;BME280;24092;53.370;-6.588;2022-09-24T07:06:05;101545.41;;;7.23;100.00
38289;BME280;24092;53.370;-6.588;2022-09-24T07:08:32;101544.26;;;6.58;100.00
38289;BME280;24092;53.370;-6.588;2022-09-24T07:11:00;101549.33;;;5.69;100.00
38289;BME280;24092;53.370;-6.588;2022-09-24T07:13:28;101551.03;;;4.96;100.00
38289;BME280;24092;53.370;-6.588;2022-09-24T07:15:55;101549.06;;;4.89;100.00
38289;BME280;24092;53.370;-6.588;2022-09-24T07:18:22;101558.57;;;3.90;100.00
38289;BME280;24092;53.370;-6.588;2022-09-24T07:20:52;101563.31;;;5.04;100.00
38289;BME280;24092;53.370;-6.588;2022-09-24T07:23:20;101562.87;;;5.09;100.00
38289;BME280;24092;53.370;-6.588;2022-09-24T07:25:55;101559.58;;;5.39;100.00
38289;BME280;24092;53.370;-6.588;2022-09-24T07:28:22;101561.17;;;5.56;100.00
38289;BME280;24092;53.370;-6.588;2022-09-24T07:30:57;101561.74;;;5.81;100.00
38289;BME280;24092;53.370;-6.588;2022-09-24T07:33:24;101570.15;;;4.82;100.00
38289;BME280;24092;53.370;-6.588;2022-09-24T07:35:51;101573.22;;;4.65;100.00
38289;BME280;24092;53.370;-6.588;2022-09-24T07:38:18;101573.41;;;4.51;100.00
38289;BME280;24092;53.370;-6.588;2022-09-24T07:40:50;101574.42;;;4.76;100.00
38289;BME280;24092;53.370;-6.588;2022-09-24T07:43:18;101572.49;;;4.50;100.00
38289;BME280;24092;53.370;-6.588;2022-09-24T07:45:52;101572.56;;;4.79;100.00
38289;BME280;24092;53.370;-6.588;2022-09-24T07:48:19;101574.57;;;3.62;100.00
38289;BME280;24092;53.370;-6.588;2022-09-24T07:50:46;101569.81;;;4.09;100.00
38289;BME280;24092;53.370;-6.588;2022-09-24T07:53:13;101574.71;;;3.63;100.00
38289;BME280;24092;53.370;-6.588;2022-09-24T07:55:41;101571.31;;;4.62;100.00
38289;BME280;24092;53.370;-6.588;2022-09-24T07:58:11;101572.78;;;4.08;100.00
38289;BME280;24092;53.370;-6.588;2022-09-24T08:00:38;101575.69;;;4.16;100.00
38289;BME280;24092;53.370;-6.588;2022-09-24T08:03:06;101580.48;;;4.29;100.00
38289;BME280;24092;53.370;-6.588;2022-09-24T08:05:33;101583.71;;;3.85;100.00
38289;BME280;24092;53.370;-6.588;2022-09-24T08:08:00;101587.77;;;4.15;100.00
38289;BME280;24092;53.370;-6.588;2022-09-24T08:10:28;101589.00;;;3.65;100.00
38289;BME280;24092;53.370;-6.588;2022-09-24T08:13:02;101598.00;;;4.41;100.00
38289;BME280;24092;53.370;-6.588;2022-09-24T08:15:29;101594.79;;;4.95;100.00
38289;BME280;24092;53.370;-6.588;2022-09-24T08:18:00;101594.96;;;4.64;100.00
38289;BME280;24092;53.370;-6.588;2022-09-24T08:20:28;101599.43;;;4.34;100.00
38289;BME280;24092;53.370;-6.588;2022-09-24T08:22:59;101601.99;;;4.48;100.00
38289;BME280;24092;53.370;-6.588;2022-09-24T08:25:27;101604.18;;;5.46;100.00
38289;BME280;24092;53.370;-6.588;2022-09-24T08:27:54;101606.57;;;5.54;100.00
38289;BME280;24092;53.370;-6.588;2022-09-24T08:30:21;101607.95;;;3.94;100.00
38289;BME280;24092;53.370;-6.588;2022-09-24T08:32:48;101614.48;;;5.27;100.00
38289;BME280;24092;53.370;-6.588;2022-09-24T08:35:15;101615.17;;;4.78;100.00
38289;BME280;24092;53.370;-6.588;2022-09-24T08:37:42;101616.67;;;4.67;100.00
38289;BME280;24092;53.370;-6.588;2022-09-24T08:40:13;101625.35;;;4.48;100.00
38289;BME280;24092;53.370;-6.588;2022-09-24T08:42:47;101627.00;;;3.96;100.00
38289;BME280;24092;53.370;-6.588;2022-09-24T08:45:16;101628.55;;;4.27;100.00
38289;BME280;24092;53.370;-6.588;2022-09-24T08:47:46;101620.69;;;4.83;100.00
38289;BME280;24092;53.370;-6.588;2022-09-24T08:50:17;101624.43;;;4.23;100.00
38289;BME280;24092;53.370;-6.588;2022-09-24T08:53:00;101628.44;;;4.06;100.00
38289;BME280;24092;53.370;-6.588;2022-09-24T08:55:35;101627.69;;;4.48;100.00
38289;BME280;24092;53.370;-6.588;2022-09-24T08:58:24;101630.34;;;4.09;100.00
38289;BME280;24092;53.370;-6.588;2022-09-24T09:01:00;101627.30;;;4.78;100.00
38289;BME280;24092;53.370;-6.588;2022-09-24T09:03:36;101633.13;;;4.71;100.00
38289;BME280;24092;53.370;-6.588;2022-09-24T09:06:13;101636.77;;;5.30;100.00
38289;BME280;24092;53.370;-6.588;2022-09-24T09:08:49;101644.52;;;5.37;100.00
38289;BME280;24092;53.370;-6.588;2022-09-24T09:11:23;101646.77;;;5.55;100.00
38289;BME280;24092;53.370;-6.588;2022-09-24T09:13:56;101644.97;;;4.39;100.00
38289;BME280;24092;53.370;-6.588;2022-09-24T09:16:28;101648.33;;;4.86;100.00
38289;BME280;24092;53.370;-6.588;2022-09-24T09:19:02;101653.65;;;5.23;100.00
38289;BME280;24092;53.370;-6.588;2022-09-24T09:21:36;101651.65;;;5.67;100.00
38289;BME280;24092;53.370;-6.588;2022-09-24T09:24:13;101648.92;;;6.04;100.00
38289;BME280;24092;53.370;-6.588;2022-09-24T09:26:43;101647.97;;;5.56;100.00
38289;BME280;24092;53.370;-6.588;2022-09-24T09:29:12;101648.54;;;5.30;100.00
38289;BME280;24092;53.370;-6.588;2022-09-24T09:31:47;101644.61;;;4.91;100.00
38289;BME280;24092;53.370;-6.588;2022-09-24T09:34:29;101640.26;;;4.68;100.00
38289;BME280;24092;53.370;-6.588;2022-09-24T09:37:06;101643.07;;;4.73;100.00
38289;BME280;24092;53.370;-6.588;2022-09-24T09:39:44;101643.58;;;5.48;100.00
38289;BME280;24092;53.370;-6.588;2022-09-24T09:42:25;101644.09;;;5.83;100.00
38289;BME280;24092;53.370;-6.588;2022-09-24T09:44:54;101643.44;;;5.26;100.00
38289;BME280;24092;53.370;-6.588;2022-09-24T09:47:28;101645.32;;;5.10;100.00
38289;BME280;24092;53.370;-6.588;2022-09-24T09:50:03;101655.35;;;6.04;100.00
38289;BME280;24092;53.370;-6.588;2022-09-24T09:52:35;101654.25;;;5.36;100.00
38289;BME280;24092;53.370;-6.588;2022-09-24T09:55:04;101654.23;;;6.18;100.00
38289;BME280;24092;53.370;-6.588;2022-09-24T09:57:33;101661.69;;;5.87;100.00
38289;BME280;24092;53.370;-6.588;2022-09-24T10:00:02;101659.36;;;6.06;100.00
38289;BME280;24092;53.370;-6.588;2022-09-24T10:02:31;101667.21;;;5.53;100.00
38289;BME280;24092;53.370;-6.588;2022-09-24T10:05:01;101667.99;;;6.99;100.00
38289;BME280;24092;53.370;-6.588;2022-09-24T10:07:29;101672.84;;;6.38;100.00
38289;BME280;24092;53.370;-6.588;2022-09-24T10:10:00;101670.49;;;6.38;100.00
38289;BME280;24092;53.370;-6.588;2022-09-24T10:12:29;101671.70;;;6.23;100.00
38289;BME280;24092;53.370;-6.588;2022-09-24T10:14:59;101671.33;;;5.95;100.00
38289;BME280;24092;53.370;-6.588;2022-09-24T10:17:29;101672.80;;;5.91;100.00
38289;BME280;24092;53.370;-6.588;2022-09-24T10:20:00;101671.51;;;6.47;100.00
38289;BME280;24092;53.370;-6.588;2022-09-24T10:22:29;101671.42;;;6.15;100.00
38289;BME280;24092;53.370;-6.588;2022-09-24T10:24:58;101673.87;;;6.19;100.00
38289;BME280;24092;53.370;-6.588;2022-09-24T10:27:31;101673.33;;;6.10;100.00
38289;BME280;24092;53.370;-6.588;2022-09-24T10:30:02;101676.57;;;7.42;100.00
38289;BME280;24092;53.370;-6.588;2022-09-24T10:32:30;101675.75;;;6.51;100.00
38289;BME280;24092;53.370;-6.588;2022-09-24T10:34:59;101675.73;;;7.13;100.00
38289;BME280;24092;53.370;-6.588;2022-09-24T10:37:31;101669.86;;;6.74;100.00
38289;BME280;24092;53.370;-6.588;2022-09-24T10:40:00;101666.82;;;7.33;100.00
38289;BME280;24092;53.370;-6.588;2022-09-24T10:42:28;101670.25;;;6.47;100.00
38289;BME280;24092;53.370;-6.588;2022-09-24T10:44:59;101679.45;;;6.18;100.00
38289;BME280;24092;53.370;-6.588;2022-09-24T10:47:31;101678.38;;;6.79;100.00
38289;BME280;24092;53.370;-6.588;2022-09-24T10:50:15;101680.60;;;6.09;100.00
38289;BME280;24092;53.370;-6.588;2022-09-24T10:52:50;101679.40;;;6.86;100.00
38289;BME280;24092;53.370;-6.588;2022-09-24T10:55:29;101680.69;;;6.41;100.00
38289;BME280;24092;53.370;-6.588;2022-09-24T10:58:02;101684.99;;;5.59;100.00
38289;BME280;24092;53.370;-6.588;2022-09-24T11:00:38;101689.09;;;6.26;100.00
38289;BME280;24092;53.370;-6.588;2022-09-24T11:03:33;101686.71;;;5.51;100.00
38289;BME280;24092;53.370;-6.588;2022-09-24T11:06:08;101683.72;;;5.55;100.00
38289;BME280;24092;53.370;-6.588;2022-09-24T11:08:53;101684.83;;;6.25;100.00
38289;BME280;24092;53.370;-6.588;2022-09-24T11:11:31;101686.06;;;5.73;100.00
38289;BME280;24092;53.370;-6.588;2022-09-24T11:14:14;101686.55;;;6.68;100.00
38289;BME280;24092;53.370;-6.588;2022-09-24T11:16:54;101690.77;;;6.52;100.00
38289;BME280;24092;53.370;-6.588;2022-09-24T11:19:47;101693.45;;;6.29;100.00
38289;BME280;24092;53.370;-6.588;2022-09-24T11:22:18;101689.24;;;6.77;100.00
38289;BME280;24092;53.370;-6.588;2022-09-24T11:25:13;101688.12;;;6.37;100.00
38289;BME280;24092;53.370;-6.588;2022-09-24T11:27:52;101682.28;;;6.75;100.00
38289;BME280;24092;53.370;-6.588;2022-09-24T11:30:22;101679.62;;;6.41;100.00
38289;BME280;24092;53.370;-6.588;2022-09-24T11:33:01;101682.39;;;6.06;100.00
38289;BME280;24092;53.370;-6.588;2022-09-24T11:35:57;101684.45;;;6.00;100.00
38289;BME280;24092;53.370;-6.588;2022-09-24T11:38:35;101679.72;;;6.42;100.00
38289;BME280;24092;53.370;-6.588;2022-09-24T11:41:17;101680.30;;;6.08;100.00
38289;BME280;24092;53.370;-6.588;2022-09-24T11:44:02;101680.29;;;6.76;100.00
38289;BME280;24092;53.370;-6.588;2022-09-24T11:46:44;101688.79;;;6.45;100.00
38289;BME280;24092;53.370;-6.588;2022-09-24T11:49:27;101681.01;;;6.14;100.00
38289;BME280;24092;53.370;-6.588;2022-09-24T11:52:07;101684.63;;;6.79;100.00
38289;BME280;24092;53.370;-6.588;2022-09-24T11:54:45;101686.06;;;6.99;100.00
38289;BME280;24092;53.370;-6.588;2022-09-24T11:57:19;101685.55;;;7.03;100.00
38289;BME280;24092;53.370;-6.588;2022-09-24T11:59:52;101685.09;;;6.60;100.00
38289;BME280;24092;53.370;-6.588;2022-09-24T12:02:25;101695.91;;;7.83;100.00
38289;BME280;24092;53.370;-6.588;2022-09-24T12:04:58;101691.86;;;7.53;100.00
38289;BME280;24092;53.370;-6.588;2022-09-24T12:07:31;101692.46;;;6.69;100.00
38289;BME280;24092;53.370;-6.588;2022-09-24T12:10:05;101691.16;;;6.69;100.00
38289;BME280;24092;53.370;-6.588;2022-09-24T12:12:42;101683.96;;;6.88;100.00
38289;BME280;24092;53.370;-6.588;2022-09-24T12:15:13;101677.74;;;7.82;100.00
38289;BME280;24092;53.370;-6.588;2022-09-24T12:17:47;101678.94;;;6.77;100.00
38289;BME280;24092;53.370;-6.588;2022-09-24T12:20:20;101677.90;;;7.10;100.00
38289;BME280;24092;53.370;-6.588;2022-09-24T12:22:51;101683.68;;;6.35;100.00
38289;BME280;24092;53.370;-6.588;2022-09-24T12:25:20;101684.25;;;6.03;100.00
38289;BME280;24092;53.370;-6.588;2022-09-24T12:27:47;101679.13;;;6.49;100.00
38289;BME280;24092;53.370;-6.588;2022-09-24T12:30:25;101676.70;;;7.26;100.00
38289;BME280;24092;53.370;-6.588;2022-09-24T12:32:58;101676.09;;;7.15;100.00
38289;BME280;24092;53.370;-6.588;2022-09-24T12:35:54;101673.19;;;7.09;100.00
38289;BME280;24092;53.370;-6.588;2022-09-24T12:38:31;101669.93;;;6.89;100.00
38289;BME280;24092;53.370;-6.588;2022-09-24T12:41:27;101669.24;;;7.01;100.00
38289;BME280;24092;53.370;-6.588;2022-09-24T12:44:06;101670.19;;;7.83;100.00
38289;BME280;24092;53.370;-6.588;2022-09-24T12:46:41;101671.03;;;7.76;100.00
38289;BME280;24092;53.370;-6.588;2022-09-24T12:49:18;101671.74;;;7.83;100.00
38289;BME280;24092;53.370;-6.588;2022-09-24T12:51:48;101676.11;;;7.70;100.00
38289;BME280;24092;53.370;-6.588;2022-09-24T12:54:22;101674.17;;;6.97;100.00
38289;BME280;24092;53.370;-6.588;2022-09-24T12:56:50;101673.71;;;7.64;100.00
38289;BME280;24092;53.370;-6.588;2022-09-24T12:59:25;101678.28;;;8.12;100.00
38289;BME280;24092;53.370;-6.588;2022-09-24T13:01:53;101670.44;;;7.30;100.00